createdAt,value
2022-10-14T00:00:43.968Z,96620.59
2022-10-14T00:03:43.066Z,96616.72
2022-10-14T00:06:39.914Z,96603.91
2022-10-14T00:09:36.775Z,96606.09
2022-10-14T00:12:34.353Z,96604.53
2022-10-14T00:15:31.286Z,96605.47
2022-10-14T00:18:28.309Z,96601.09
2022-10-14T00:21:26.641Z,96602.06
2022-10-14T00:24:23.633Z,96610.53
2022-10-14T00:27:20.682Z,96604.22
2022-10-14T00:30:18.198Z,96602.63
2022-10-14T00:33:15.036Z,96608.16
2022-10-14T00:36:15.335Z,96602.31
2022-10-14T00:39:12.512Z,96595.38
2022-10-14T00:42:14.958Z,96608.78
2022-10-14T00:45:20.818Z,96611.16
2022-10-14T00:48:21.108Z,96610.16
2022-10-14T00:51:19.102Z,96608.28
2022-10-14T00:54:19.283Z,96608.09
2022-10-14T00:57:16.832Z,96615.84
2022-10-14T01:00:19.123Z,96612.06
2022-10-14T01:03:22.508Z,96603.84
2022-10-14T01:07:00.129Z,96601.06
2022-10-14T01:10:35.341Z,96613.00
2022-10-14T01:13:55.612Z,96617.34
2022-10-14T01:17:13.325Z,96615.13
2022-10-14T01:21:00.879Z,96613.00
2022-10-14T01:24:23.371Z,96612.00
2022-10-14T01:27:52.749Z,96617.81
2022-10-14T01:31:04.503Z,96610.25
2022-10-14T01:34:07.159Z,96608.66
2022-10-14T01:37:13.431Z,96617.59
2022-10-14T01:40:23.051Z,96606.28
2022-10-14T01:43:22.663Z,96617.81
2022-10-14T01:46:24.222Z,96606.41
2022-10-14T01:49:50.317Z,96606.09
2022-10-14T01:53:16.865Z,96608.78
2022-10-14T01:56:17.243Z,96602.81
2022-10-14T01:59:18.171Z,96595.38
2022-10-14T02:02:15.057Z,96601.34
2022-10-14T02:05:43.252Z,96595.69
2022-10-14T02:09:02.193Z,96596.97
2022-10-14T02:12:33.385Z,96594.91
2022-10-14T02:15:58.569Z,96587.97
2022-10-14T02:19:20.115Z,96579.13
2022-10-14T02:22:35.542Z,96580.09
2022-10-14T02:25:37.113Z,96575.75
2022-10-14T02:28:34.946Z,96572.50
2022-10-14T02:31:34.494Z,96568.34
2022-10-14T02:34:32.513Z,96567.13
2022-10-14T02:37:31.213Z,96562.25
2022-10-14T02:40:42.972Z,96568.88
2022-10-14T02:43:39.905Z,96556.41
2022-10-14T02:46:40.090Z,96559.44
2022-10-14T02:49:36.937Z,96563.16
2022-10-14T02:52:33.851Z,96558.78
2022-10-14T02:55:30.762Z,96565.41
2022-10-14T02:58:27.656Z,96555.00
2022-10-14T03:01:24.596Z,96551.84
2022-10-14T03:04:21.542Z,96555.00
2022-10-14T03:07:18.397Z,96549.97
2022-10-14T03:10:15.695Z,96566.16
2022-10-14T03:13:12.663Z,96554.53
2022-10-14T03:16:09.529Z,96552.66
2022-10-14T03:19:06.385Z,96548.50
2022-10-14T03:22:03.377Z,96544.59
2022-10-14T03:25:00.228Z,96552.59
2022-10-14T03:27:57.164Z,96546.91
2022-10-14T03:30:54.013Z,96552.88
2022-10-14T03:33:50.839Z,96545.91
2022-10-14T03:36:47.752Z,96541.97
2022-10-14T03:39:44.968Z,96538.88
2022-10-14T03:42:42.288Z,96536.81
2022-10-14T03:45:39.129Z,96532.84
2022-10-14T03:48:35.981Z,96534.72
2022-10-14T03:51:33.147Z,96531.56
2022-10-14T03:54:30.113Z,96528.88
2022-10-14T03:57:26.969Z,96530.16
2022-10-14T04:00:23.889Z,96524.50
2022-10-14T04:03:20.765Z,96522.44
2022-10-14T04:06:17.690Z,96532.53
2022-10-14T04:09:14.595Z,96522.91
2022-10-14T04:12:11.635Z,96505.25
2022-10-14T04:15:09.070Z,96519.75
2022-10-14T04:18:06.025Z,96519.75
2022-10-14T04:21:06.545Z,96513.78
2022-10-14T04:24:08.043Z,96505.88
2022-10-14T04:27:05.376Z,96513.91
2022-10-14T04:30:02.347Z,96509.66
2022-10-14T04:32:59.224Z,96509.81
2022-10-14T04:36:01.682Z,96506.84
2022-10-14T04:38:58.534Z,96514.09
2022-10-14T04:41:55.419Z,96512.81
2022-10-14T04:44:52.806Z,96510.13
2022-10-14T04:47:50.142Z,96505.94
2022-10-14T04:50:51.396Z,96517.88
2022-10-14T04:53:48.287Z,96510.13
2022-10-14T04:56:45.153Z,96510.03
2022-10-14T04:59:42.024Z,96509.25
2022-10-14T05:02:39.045Z,96510.03
2022-10-14T05:05:35.985Z,96507.34
2022-10-14T05:08:32.875Z,96513.50
2022-10-14T05:11:29.743Z,96512.41
2022-10-14T05:14:26.580Z,96509.03
2022-10-14T05:17:23.450Z,96505.09
2022-10-14T05:20:20.463Z,96514.09
2022-10-14T05:23:17.423Z,96505.63
2022-10-14T05:26:14.336Z,96505.47
2022-10-14T05:29:11.875Z,96509.34
2022-10-14T05:32:08.785Z,96504.78
2022-10-14T05:35:06.234Z,96504.34
2022-10-14T05:38:04.632Z,96507.88
2022-10-14T05:41:01.670Z,96508.66
2022-10-14T05:43:58.614Z,96511.41
2022-10-14T05:46:55.490Z,96513.28
2022-10-14T05:49:52.348Z,96513.97
2022-10-14T05:52:49.304Z,96507.03
2022-10-14T05:55:46.156Z,96505.63
2022-10-14T05:58:43.039Z,96504.03
2022-10-14T06:01:41.003Z,96511.94
2022-10-14T06:04:41.007Z,96508.97
2022-10-14T06:07:38.034Z,96504.41
2022-10-14T06:10:35.880Z,96504.47
2022-10-14T06:13:32.763Z,96508.53
2022-10-14T06:16:29.654Z,96507.63
2022-10-14T06:19:26.684Z,96500.72
2022-10-14T06:22:24.153Z,96502.09
2022-10-14T06:25:21.286Z,96501.03
2022-10-14T06:28:18.234Z,96506.25
2022-10-14T06:31:15.206Z,96496.31
2022-10-14T06:34:12.035Z,96497.91
2022-10-14T06:37:08.889Z,96491.16
2022-10-14T06:40:06.412Z,96499.19
2022-10-14T06:43:03.567Z,96496.78
2022-10-14T06:46:00.842Z,96506.88
2022-10-14T06:48:57.701Z,96500.31
2022-10-14T06:51:54.569Z,96499.50
2022-10-14T06:54:51.470Z,96506.47
2022-10-14T06:57:48.333Z,96516.22
2022-10-14T07:00:48.133Z,96504.88
2022-10-14T07:03:45.274Z,96513.53
2022-10-14T07:06:42.137Z,96511.66
2022-10-14T07:09:39.041Z,96517.00
2022-10-14T07:12:35.927Z,96516.38
2022-10-14T07:15:35.419Z,96523.31
2022-10-14T07:18:33.373Z,96515.47
2022-10-14T07:21:30.971Z,96529.63
2022-10-14T07:24:27.859Z,96528.22
2022-10-14T07:27:24.839Z,96536.25
2022-10-14T07:30:21.994Z,96534.81
2022-10-14T07:33:18.816Z,96529.19
2022-10-14T07:36:21.554Z,96521.78
2022-10-14T07:39:19.605Z,96526.00
2022-10-14T07:42:16.481Z,96516.28
2022-10-14T07:45:16.306Z,96523.84
2022-10-14T07:48:13.127Z,96529.78
2022-10-14T07:51:10.287Z,96529.78
2022-10-14T07:54:11.702Z,96532.31
2022-10-14T07:57:08.542Z,96545.34
2022-10-14T08:00:06.432Z,96544.44
2022-10-14T08:03:03.258Z,96538.31
2022-10-14T08:06:02.702Z,96542.72
2022-10-14T08:08:59.566Z,96544.94
2022-10-14T08:11:56.927Z,96545.66
2022-10-14T08:14:57.187Z,96555.47
2022-10-14T08:17:54.438Z,96558.66
2022-10-14T08:20:51.312Z,96564.91
2022-10-14T08:23:48.782Z,96558.28
2022-10-14T08:26:52.780Z,96566.44
2022-10-14T08:29:49.629Z,96557.97
2022-10-14T08:32:46.882Z,96561.81
2022-10-14T08:35:43.736Z,96547.13
2022-10-14T08:38:41.123Z,96547.72
2022-10-14T08:41:55.927Z,96547.19
2022-10-14T08:44:55.566Z,96539.25
2022-10-14T08:47:57.134Z,96541.97
2022-10-14T08:51:03.151Z,96544.66
2022-10-14T08:54:08.915Z,96542.75
2022-10-14T08:57:11.938Z,96543.25
2022-10-14T09:00:12.010Z,96545.34
2022-10-14T09:03:33.816Z,96545.50
2022-10-14T09:06:35.002Z,96540.78
2022-10-14T09:09:45.062Z,96541.91
2022-10-14T09:12:42.955Z,96533.22
2022-10-14T09:15:44.943Z,96539.03
2022-10-14T09:18:57.508Z,96547.28
2022-10-14T09:21:55.624Z,96543.66
2022-10-14T09:24:52.519Z,96541.31
2022-10-14T09:27:49.869Z,96541.66
2022-10-14T09:30:46.907Z,96538.44
2022-10-14T09:33:45.180Z,96531.53
2022-10-14T09:36:42.100Z,96530.56
2022-10-14T09:39:40.998Z,96529.63
2022-10-14T09:43:00.943Z,96519.41
2022-10-14T09:46:11.005Z,96516.06
2022-10-14T09:49:18.016Z,96509.31
2022-10-14T09:52:25.093Z,96518.78
2022-10-14T09:55:24.404Z,96502.69
2022-10-14T09:58:51.091Z,96500.03
2022-10-14T10:01:57.514Z,96502.50
2022-10-14T10:04:54.909Z,96490.72
2022-10-14T10:08:16.759Z,96489.78
2022-10-14T10:11:14.011Z,96498.47
2022-10-14T10:14:34.079Z,96496.88
2022-10-14T10:17:36.002Z,96497.84
2022-10-14T10:20:36.079Z,96493.59
2022-10-14T10:23:35.524Z,96486.47
2022-10-14T10:26:34.471Z,96489.78
2022-10-14T10:29:32.292Z,96488.19
2022-10-14T10:33:14.732Z,96490.44
2022-10-14T10:36:30.426Z,96484.09
2022-10-14T10:40:01.336Z,96491.50
2022-10-14T10:43:20.003Z,96488.22
2022-10-14T10:46:50.865Z,96476.22
2022-10-14T10:50:24.355Z,96479.53
2022-10-14T10:53:30.251Z,96464.06
2022-10-14T10:56:50.490Z,96460.66
2022-10-14T11:00:08.572Z,96459.50
2022-10-14T11:03:35.630Z,96448.59
2022-10-14T11:07:37.183Z,96441.66
2022-10-14T11:11:12.855Z,96435.50
2022-10-14T11:14:40.535Z,96435.81
2022-10-14T11:17:52.561Z,96428.09
2022-10-14T11:21:10.287Z,96427.56
2022-10-14T11:24:39.661Z,96417.00
2022-10-14T11:27:48.141Z,96415.13
2022-10-14T11:31:07.015Z,96403.72
2022-10-14T11:34:41.715Z,96401.81
2022-10-14T11:37:58.282Z,96399.28
2022-10-14T11:41:41.395Z,96398.19
2022-10-14T11:44:41.235Z,96390.91
2022-10-14T11:47:41.394Z,96392.97
2022-10-14T11:50:43.188Z,96391.72
2022-10-14T11:54:12.033Z,96389.31
2022-10-14T11:57:35.374Z,96379.84
2022-10-14T12:00:36.248Z,96373.34
2022-10-14T12:04:03.651Z,96375.09
2022-10-14T12:07:10.801Z,96374.28
2022-10-14T12:10:22.988Z,96360.69
2022-10-14T12:13:34.518Z,96363.38
2022-10-14T12:16:32.441Z,96377.97
2022-10-14T12:19:30.538Z,96378.44
2022-10-14T12:22:31.716Z,96374.00
2022-10-14T12:25:46.889Z,96360.09
2022-10-14T12:28:44.098Z,96352.47
2022-10-14T12:31:41.053Z,96342.28
2022-10-14T12:34:43.140Z,96347.69
2022-10-14T12:37:50.013Z,96340.38
2022-10-14T12:40:50.684Z,96322.97
2022-10-14T12:44:05.005Z,96314.47
2022-10-14T12:47:03.669Z,96320.84
2022-10-14T12:50:22.209Z,96305.28
2022-10-14T12:53:31.970Z,96306.03
2022-10-14T12:56:33.238Z,96306.25
2022-10-14T12:59:36.745Z,96296.13
2022-10-14T13:02:44.593Z,96312.41
2022-10-14T13:05:44.451Z,96302.09
2022-10-14T13:08:41.320Z,96300.78
2022-10-14T13:11:57.106Z,96303.22
2022-10-14T13:15:01.429Z,96295.66
2022-10-14T13:17:58.271Z,96292.47
2022-10-14T13:20:55.132Z,96286.47
2022-10-14T13:23:52.890Z,96281.22
2022-10-14T13:27:25.112Z,96287.75
2022-10-14T13:30:48.143Z,96294.97
2022-10-14T13:34:01.721Z,96292.00
2022-10-14T13:37:24.555Z,96287.41
2022-10-14T13:40:34.581Z,96267.97
2022-10-14T13:43:42.956Z,96274.81
2022-10-14T13:46:44.988Z,96276.16
2022-10-14T13:49:43.781Z,96283.44
2022-10-14T13:52:41.599Z,96275.44
2022-10-14T13:55:54.427Z,96264.25
2022-10-14T13:58:51.884Z,96263.72
2022-10-14T14:01:49.366Z,96269.28
2022-10-14T14:04:55.761Z,96269.16
2022-10-14T14:11:17.754Z,96258.53
2022-10-14T14:14:24.316Z,96259.84
2022-10-14T14:17:26.427Z,96253.28
2022-10-14T14:20:28.880Z,96250.34
2022-10-14T14:23:27.513Z,96257.22
2022-10-14T14:26:39.391Z,96246.41
2022-10-14T14:29:36.259Z,96245.78
2022-10-14T14:32:33.331Z,96244.41
2022-10-14T14:35:30.487Z,96247.75
2022-10-14T14:38:33.716Z,96239.22
2022-10-14T14:41:32.869Z,96232.91
2022-10-14T14:44:33.719Z,96234.31
2022-10-14T14:47:32.279Z,96220.38
2022-10-14T14:50:42.845Z,96217.75
2022-10-14T14:53:40.484Z,96217.41
2022-10-14T14:56:46.643Z,96224.47
2022-10-14T15:00:07.629Z,96219.88
2022-10-14T15:03:05.004Z,96217.19
2022-10-14T15:06:05.509Z,96208.56
2022-10-14T15:09:14.865Z,96203.03
2022-10-14T15:12:25.169Z,96205.47
2022-10-14T15:15:32.289Z,96198.81
2022-10-14T15:18:30.370Z,96194.38
2022-10-14T15:21:27.711Z,96200.38
2022-10-14T15:24:24.544Z,96183.75
2022-10-14T15:27:35.778Z,96179.22
2022-10-14T15:30:41.471Z,96177.84
2022-10-14T15:33:38.383Z,96176.78
2022-10-14T15:36:35.409Z,96175.63
2022-10-14T15:39:32.381Z,96180.94
2022-10-14T15:42:29.279Z,96171.09
2022-10-14T15:45:26.663Z,96176.16
2022-10-14T15:48:23.655Z,96175.81
2022-10-14T15:51:25.821Z,96183.63
2022-10-14T15:54:27.270Z,96172.22
2022-10-14T15:57:24.617Z,96177.19
2022-10-14T16:00:24.312Z,96180.16
2022-10-14T16:03:21.399Z,96172.94
2022-10-14T16:06:19.369Z,96170.84
2022-10-14T16:09:16.388Z,96183.00
2022-10-14T16:12:14.479Z,96176.63
2022-10-14T16:15:28.390Z,96169.84
2022-10-14T16:18:25.877Z,96167.22
2022-10-14T16:21:22.750Z,96165.19
2022-10-14T16:24:22.349Z,96168.03
2022-10-14T16:27:19.599Z,96167.22
2022-10-14T16:30:17.111Z,96159.66
2022-10-14T16:33:18.362Z,96156.97
2022-10-14T16:36:15.717Z,96142.31
2022-10-14T16:39:13.170Z,96153.50
2022-10-14T16:42:10.074Z,96151.78
2022-10-14T16:45:07.938Z,96154.78
2022-10-14T16:48:04.873Z,96151.00
2022-10-14T16:51:02.372Z,96143.91
2022-10-14T16:53:59.332Z,96151.19
2022-10-14T16:56:56.928Z,96151.22
2022-10-14T16:59:53.768Z,96155.44
2022-10-14T17:02:50.718Z,96156.19
2022-10-14T17:05:47.822Z,96145.56
2022-10-14T17:08:44.777Z,96153.38
2022-10-14T17:11:42.369Z,96158.00
2022-10-14T17:14:39.253Z,96159.56
2022-10-14T17:17:36.182Z,96152.63
2022-10-14T17:20:33.113Z,96150.56
2022-10-14T17:23:31.228Z,96150.25
2022-10-14T17:26:29.897Z,96141.75
2022-10-14T17:29:28.582Z,96134.34
2022-10-14T17:32:28.032Z,96142.19
2022-10-14T17:35:24.874Z,96136.72
2022-10-14T17:38:21.797Z,96129.63
2022-10-14T17:41:19.072Z,96139.41
2022-10-14T17:44:15.897Z,96128.69
2022-10-14T17:47:12.750Z,96126.41
2022-10-14T17:50:10.860Z,96121.25
2022-10-14T17:53:07.814Z,96117.78
2022-10-14T17:56:06.859Z,96120.28
2022-10-14T17:59:14.277Z,96120.91
2022-10-14T18:02:18.186Z,96121.03
2022-10-14T18:05:15.225Z,96120.22
2022-10-14T18:08:14.010Z,96117.53
2022-10-14T18:11:12.363Z,96116.47
2022-10-14T18:14:13.497Z,96115.16
2022-10-14T18:17:12.475Z,96125.44
2022-10-14T18:20:09.885Z,96116.63
2022-10-14T18:23:07.553Z,96109.41
2022-10-14T18:26:11.012Z,96114.50
2022-10-14T18:29:10.354Z,96114.66
2022-10-14T18:32:07.199Z,96106.84
2022-10-14T18:35:05.644Z,96104.44
2022-10-14T18:38:02.539Z,96092.59
2022-10-14T18:41:05.748Z,96089.44
2022-10-14T18:44:03.208Z,96099.63
2022-10-14T18:47:00.311Z,96102.47
2022-10-14T18:49:59.550Z,96099.97
2022-10-14T18:52:56.448Z,96092.91
2022-10-14T18:55:56.712Z,96088.06
2022-10-14T19:02:08.294Z,96062.13
2022-10-14T19:05:05.803Z,96062.91
2022-10-14T19:08:03.908Z,96055.38
2022-10-14T19:11:19.754Z,96063.44
2022-10-14T19:14:17.075Z,96060.69
2022-10-14T19:20:15.973Z,96041.75
2022-10-14T19:23:12.823Z,96032.06
2022-10-14T19:26:14.483Z,96045.22
2022-10-14T19:29:14.376Z,96044.13
2022-10-14T19:32:11.196Z,96046.47
2022-10-14T19:35:08.155Z,96043.22
2022-10-14T19:38:05.049Z,96042.81
2022-10-14T19:41:04.675Z,96044.22
2022-10-14T19:44:01.794Z,96046.00
2022-10-14T19:46:58.732Z,96037.88
2022-10-14T19:49:55.545Z,96030.28
2022-10-14T19:52:52.382Z,96043.94
2022-10-14T19:55:49.206Z,96041.31
2022-10-14T19:58:52.919Z,96029.16
2022-10-14T20:01:50.016Z,96037.09
2022-10-14T20:04:46.930Z,96028.91
2022-10-14T20:07:47.074Z,96033.81
2022-10-14T20:10:44.001Z,96031.72
2022-10-14T20:13:41.359Z,96029.31
2022-10-14T20:16:38.259Z,96025.03
2022-10-14T20:19:37.582Z,96016.97
2022-10-14T20:22:34.748Z,96025.16
2022-10-14T20:25:32.489Z,96023.25
2022-10-14T20:28:30.604Z,96023.72
2022-10-14T20:31:27.581Z,96027.63
2022-10-14T20:34:25.388Z,96022.81
2022-10-14T20:37:25.658Z,96021.47
2022-10-14T20:40:24.947Z,96020.25
2022-10-14T20:43:22.114Z,96013.22
2022-10-14T20:46:19.724Z,96006.13
2022-10-14T20:49:16.596Z,96025.50
2022-10-14T20:52:13.482Z,96014.97
2022-10-14T20:55:10.358Z,96003.09
2022-10-14T20:58:07.185Z,96007.16
2022-10-14T21:01:09.174Z,96005.84
2022-10-14T21:04:07.985Z,96000.78
2022-10-14T21:07:04.829Z,95995.41
2022-10-14T21:10:02.422Z,95999.19
2022-10-14T21:12:59.376Z,95991.47
2022-10-14T21:15:56.677Z,95987.03
2022-10-14T21:19:02.980Z,95975.34
2022-10-14T21:22:01.086Z,95978.81
2022-10-14T21:24:57.948Z,95982.63
2022-10-14T21:27:54.847Z,95977.25
2022-10-14T21:30:51.705Z,95978.81
2022-10-14T21:33:55.454Z,95982.50
2022-10-14T21:36:52.299Z,95973.13
2022-10-14T21:39:49.133Z,95974.47
2022-10-14T21:42:45.977Z,95966.63
2022-10-14T21:45:42.816Z,95972.00
2022-10-14T21:48:41.053Z,95962.06
2022-10-14T21:51:38.897Z,95958.91
2022-10-14T21:54:35.732Z,95954.63
2022-10-14T21:57:32.572Z,95954.19
2022-10-14T22:00:29.441Z,95948.22
2022-10-14T22:03:26.499Z,95953.84
2022-10-14T22:06:24.263Z,95942.22
2022-10-14T22:09:21.360Z,95948.13
2022-10-14T22:12:18.343Z,95940.97
2022-10-14T22:15:15.277Z,95932.78
2022-10-14T22:18:12.153Z,95935.22
2022-10-14T22:21:09.338Z,95929.06
2022-10-14T22:27:09.262Z,95937.66
2022-10-14T22:30:06.796Z,95939.09
2022-10-14T22:33:03.819Z,95928.69
2022-10-14T22:36:13.145Z,95931.19
2022-10-14T22:39:15.838Z,95926.59
2022-10-14T22:42:12.716Z,95923.13
2022-10-14T22:45:10.647Z,95930.94
2022-10-14T22:48:07.462Z,95926.69
2022-10-14T22:51:10.311Z,95917.84
2022-10-14T22:54:07.583Z,95920.53
2022-10-14T22:57:04.426Z,95917.25
2022-10-14T23:00:01.374Z,95917.91
2022-10-14T23:02:58.280Z,95915.34
2022-10-14T23:06:00.834Z,95913.97
2022-10-14T23:09:00.396Z,95906.84
2022-10-14T23:11:57.257Z,95900.69
2022-10-14T23:14:54.807Z,95894.09
2022-10-14T23:17:51.653Z,95891.06
2022-10-14T23:20:48.505Z,95888.16
2022-10-14T23:23:47.592Z,95891.28
2022-10-14T23:26:44.462Z,95892.19
2022-10-14T23:29:41.300Z,95886.94
2022-10-14T23:32:38.282Z,95888.38
2022-10-14T23:35:35.556Z,95881.19
2022-10-14T23:38:33.437Z,95878.50
2022-10-14T23:41:30.375Z,95878.66
2022-10-14T23:44:27.230Z,95881.34
2022-10-14T23:47:24.510Z,95888.63
2022-10-14T23:50:21.635Z,95890.53
2022-10-14T23:53:18.843Z,95883.47
2022-10-14T23:56:15.691Z,95880.47
2022-10-14T23:59:12.614Z,95879.41
